Time;durP1;ratioP1;P1;durP2;ratioP2;P2;SDS_P1;SDS_P2;PMS_P1;PMS_P2;Temp;Humidity;BMP_temperature;BMP_pressure;BME280_temperature;BME280_humidity;BME280_pressure;Samples;Min_cycle;Max_cycle;Signal;HPM_P1;HPM_P2
2024/01/11 00:01:08;;;;;;;;;;;;;;;;;;5019542;28;60558;-74
2024/01/11 00:03:33;;;;;;;;;;;;;;;;;;5017383;28;60246;-75
2024/01/11 00:05:58;;;;;;;;;;;;;;;;;;5020071;28;59564;-75
2024/01/11 00:08:23;;;;;;;;;;;;;;;;;;5020459;28;60331;-77
2024/01/11 00:10:48;;;;;;;;;;;;;;;;;;5021080;28;59626;-75
2024/01/11 00:13:13;;;;;;;;;;;;;;;;;;5021002;27;60637;-75
2024/01/11 00:15:38;;;;;;;;;;;;;;;;;;5019184;28;59932;-76
2024/01/11 00:18:04;;;;;;;;;;;;;;;;;;5020379;28;59659;-79
2024/01/11 00:20:29;;;;;;;;;;;;;;;;;;5017190;28;60803;-75
2024/01/11 00:22:54;;;;;;;;;;;;;;;;;;5017492;28;59191;-76
2024/01/11 00:25:19;;;;;;;;;;;;;;;;;;5017936;28;59322;-73
2024/01/11 00:27:44;;;;;;;;;;;;;;;;;;5020374;27;60233;-73
2024/01/11 00:30:09;;;;;;;;;;;;;;;;;;5018586;28;59774;-71
2024/01/11 00:32:34;;;;;;;;;;;;;;;;;;5019288;28;59655;-73
2024/01/11 00:34:59;;;;;;;;;;;;;;;;;;5018557;27;59742;-71
2024/01/11 00:37:25;;;;;;;;;;;;;;;;;;5021705;28;59587;-73
2024/01/11 00:39:50;;;;;;;;;;;;;;;;;;5022315;28;61256;-75
2024/01/11 00:42:15;;;;;;;;;;;;;;;;;;5023263;28;59347;-72
2024/01/11 00:44:40;;;;;;;;;;;;;;;;;;5023152;28;59350;-71
2024/01/11 00:47:05;;;;;;;;;;;;;;;;;;5023848;28;61233;-73
2024/01/11 00:49:30;;;;;;;;;;;;;;;;;;5024447;27;60453;-74
2024/01/11 00:51:55;;;;;;;;;;;;;;;;;;5024112;28;59191;-72
2024/01/11 00:54:20;;;;;;;;;;;;;;;;;;5023356;28;60185;-75
2024/01/11 00:56:45;;;;;;;;;;;;;;;;;;5022376;28;59268;-72
2024/01/11 00:59:10;;;;;;;;;;;;;;;;;;5021405;28;62101;-72
2024/01/11 01:01:36;;;;;;;;;;;;;;;;;;5022620;27;59185;-75
2024/01/11 01:04:01;;;;;;;;;;;;;;;;;;5022340;28;60182;-72
2024/01/11 01:06:27;;;;;;;;;;;;;;;;;;5023191;28;60086;-78
2024/01/11 01:08:52;;;;;;;;;;;;;;;;;;5022201;28;59331;-71
2024/01/11 01:11:17;;;;;;;;;;;;;;;;;;5023323;27;59456;-74
2024/01/11 01:13:42;;;;;;;;;;;;;;;;;;5023213;28;60485;-72
2024/01/11 01:16:07;;;;;;;;;;;;;;;;;;5022676;28;59395;-73
2024/01/11 01:18:32;;;;;;;;;;;;;;;;;;5024022;28;61229;-71
2024/01/11 01:20:57;;;;;;;;;;;;;;;;;;5022972;28;59601;-72
2024/01/11 01:23:22;;;;;;;;;;;;;;;;;;5023324;28;59775;-73
2024/01/11 01:25:47;;;;;;;;;;;;;;;;;;5021992;27;60424;-71
2024/01/11 01:28:12;;;;;;;;;;;;;;;;;;5022216;28;59818;-73
2024/01/11 01:30:37;;;;;;;;;;;;;;;;;;5022638;28;59382;-73
2024/01/11 01:33:02;;;;;;;;;;;;;;;;;;5023188;28;60440;-75
2024/01/11 01:35:28;;;;;;;;;;;;;;;;;;5020307;28;59600;-75
2024/01/11 01:37:53;;;;;;;;;;;;;;;;;;5024209;28;59135;-76
2024/01/11 01:40:18;;;;;;;;;;;;;;;;;;5021411;27;59444;-72
2024/01/11 01:42:43;;;;;;;;;;;;;;;;;;5022177;28;60287;-74
2024/01/11 01:45:09;;;;;;;;;;;;;;;;;;5023522;28;60494;-72
2024/01/11 01:47:34;;;;;;;;;;;;;;;;;;5023565;27;59399;-71
2024/01/11 01:49:59;;;;;;;;;;;;;;;;;;5023345;28;59507;-72
2024/01/11 01:52:24;;;;;;;;;;;;;;;;;;5020740;28;61206;-72
2024/01/11 01:54:49;;;;;;;;;;;;;;;;;;5019604;28;59853;-74
2024/01/11 01:57:14;;;;;;;;;;;;;;;;;;5023329;28;59715;-71
2024/01/11 01:59:39;;;;;;;;;;;;;;;;;;5021145;27;59934;-73
2024/01/11 02:02:04;;;;;;;;;;;;;;;;;;5021183;28;59174;-73
2024/01/11 02:04:30;;;;;;;;;;;;;;;;;;5022565;28;61237;-71
2024/01/11 02:06:55;;;;;;;;;;;;;;;;;;5020244;28;60011;-71
2024/01/11 02:09:20;;;;;;;;;;;;;;;;;;5021267;28;60265;-73
2024/01/11 02:11:45;;;;;;;;;;;;;;;;;;5022096;28;60291;-74
2024/01/11 02:14:10;;;;;;;;;;;;;;;;;;5021717;28;60019;-71
2024/01/11 02:16:35;;;;;;;;;;;;;;;;;;5022122;28;59986;-74
2024/01/11 02:19:00;;;;;;;;;;;;;;;;;;5021463;28;59796;-73
2024/01/11 02:21:26;;;;;;;;;;;;;;;;;;5022798;28;60033;-73
2024/01/11 02:23:51;;;;;;;;;;;;;;;;;;5020898;28;60256;-75
2024/01/11 02:26:16;;;;;;;;;;;;;;;;;;5019482;27;59747;-75
2024/01/11 02:28:41;;;;;;;;;;;;;;;;;;5021273;28;59891;-73
2024/01/11 02:31:06;;;;;;;;;;;;;;;;;;5020990;28;61051;-77
2024/01/11 02:33:31;;;;;;;;;;;;;;;;;;5022115;28;59643;-72
2024/01/11 02:35:56;;;;;;;;;;;;;;;;;;5021184;28;59703;-74
2024/01/11 02:38:21;;;;;;;;;;;;;;;;;;5020572;27;61228;-72
2024/01/11 02:40:46;;;;;;;;;;;;;;;;;;5021075;28;59714;-77
2024/01/11 02:43:11;;;;;;;;;;;;;;;;;;5022644;28;59329;-75
2024/01/11 02:45:36;;;;;;;;;;;;;;;;;;5020829;28;59213;-75
2024/01/11 02:48:01;;;;;;;;;;;;;;;;;;5024709;28;59505;-76
2024/01/11 02:50:26;;;;;;;;;;;;;;;;;;5021006;28;62175;-76
2024/01/11 02:52:52;;;;;;;;;;;;;;;;;;5020964;28;59787;-73
2024/01/11 02:55:17;;;;;;;;;;;;;;;;;;5023101;27;60391;-75
2024/01/11 02:57:42;;;;;;;;;;;;;;;;;;5022676;28;59277;-72
2024/01/11 03:00:07;;;;;;;;;;;;;;;;;;5021867;28;59692;-73
2024/01/11 03:02:32;;;;;;;;;;;;;;;;;;5022078;27;59385;-74
2024/01/11 03:04:57;;;;;;;;;;;;;;;;;;5020914;28;60231;-72
2024/01/11 03:07:22;;;;;;;;;;;;;;;;;;5019966;28;59712;-73
2024/01/11 03:09:47;;;;;;;;;;;;;;;;;;5021098;28;61280;-74
2024/01/11 03:12:12;;;;;;;;;;;;;;;;;;5020788;28;59270;-77
2024/01/11 03:14:37;;;;;;;;;;;;;;;;;;5023014;28;59388;-77
2024/01/11 03:17:02;;;;;;;;;;;;;;;;;;5022102;28;62021;-75
2024/01/11 03:19:27;;;;;;;;;;;;;;;;;;5018344;28;60254;-73
2024/01/11 03:21:52;;;;;;;;;;;;;;;;;;5021745;28;59689;-76
2024/01/11 03:24:17;;;;;;;;;;;;;;;;;;5020927;28;61209;-74
2024/01/11 03:26:43;;;;;;;;;;;;;;;;;;5019659;28;60531;-73
2024/01/11 03:29:08;;;;;;;;;;;;;;;;;;5021378;28;59589;-72
2024/01/11 03:31:33;;;;;;;;;;;;;;;;;;5024807;28;59673;-73
2024/01/11 03:33:58;;;;;;;;;;;;;;;;;;5024740;27;60385;-76
2024/01/11 03:36:23;;;;;;;;;;;;;;;;;;5024405;28;60176;-73
2024/01/11 03:38:48;;;;;;;;;;;;;;;;;;5024009;28;60309;-75
2024/01/11 03:41:13;;;;;;;;;;;;;;;;;;5024219;28;59374;-72
2024/01/11 03:43:38;;;;;;;;;;;;;;;;;;5024395;27;61157;-73
2024/01/11 03:46:03;;;;;;;;;;;;;;;;;;5024670;28;59818;-72
2024/01/11 03:48:28;;;;;;;;;;;;;;;;;;5024712;28;59525;-74
2024/01/11 03:50:54;;;;;;;;;;;;;;;;;;5023743;28;59590;-73
2024/01/11 03:53:19;;;;;;;;;;;;;;;;;;5023295;27;59233;-73
2024/01/11 03:55:44;;;;;;;;;;;;;;;;;;5024370;28;61228;-74
2024/01/11 03:58:09;;;;;;;;;;;;;;;;;;5023474;27;60222;-75
2024/01/11 04:00:34;;;;;;;;;;;;;;;;;;5024364;28;59524;-73
2024/01/11 04:02:59;;;;;;;;;;;;;;;;;;5022829;27;60269;-77
2024/01/11 04:05:24;;;;;;;;;;;;;;;;;;5022024;28;59777;-73
2024/01/11 04:07:49;;;;;;;;;;;;;;;;;;5024042;28;60647;-76
2024/01/11 04:10:14;;;;;;;;;;;;;;;;;;5019367;27;59230;-74
2024/01/11 04:12:39;;;;;;;;;;;;;;;;;;5023648;28;60391;-73
2024/01/11 04:15:05;;;;;;;;;;;;;;;;;;5023516;28;61289;-74
2024/01/11 04:17:30;;;;;;;;;;;;;;;;;;5025120;27;59566;-72
2024/01/11 04:19:55;;;;;;;;;;;;;;;;;;5023184;28;59500;-73
2024/01/11 04:22:20;;;;;;;;;;;;;;;;;;5024679;28;60509;-71
2024/01/11 04:24:45;;;;;;;;;;;;;;;;;;5022511;27;59973;-74
2024/01/11 04:27:10;;;;;;;;;;;;;;;;;;5025569;28;59560;-69
2024/01/11 04:29:35;;;;;;;;;;;;;;;;;;5021147;28;59419;-68
2024/01/11 04:32:01;;;;;;;;;;;;;;;;;;5024847;27;59401;-68
2024/01/11 04:34:26;;;;;;;;;;;;;;;;;;5023320;28;60499;-69
2024/01/11 04:36:51;;;;;;;;;;;;;;;;;;5022044;28;60022;-69
2024/01/11 04:39:16;;;;;;;;;;;;;;;;;;5025016;28;59240;-70
2024/01/11 04:41:41;;;;;;;;;;;;;;;;;;5024386;27;60312;-69
2024/01/11 04:44:06;;;;;;;;;;;;;;;;;;5021727;28;59525;-69
2024/01/11 04:46:31;;;;;;;;;;;;;;;;;;5024087;27;59667;-69
2024/01/11 04:48:56;;;;;;;;;;;;;;;;;;5024363;27;61612;-69
2024/01/11 04:51:22;;;;;;;;;;;;;;;;;;5025045;28;60029;-71
2024/01/11 04:53:47;;;;;;;;;;;;;;;;;;5023469;27;61948;-71
2024/01/11 04:56:12;;;;;;;;;;;;;;;;;;5023079;28;60516;-72
2024/01/11 04:58:40;;;;;;;;;;;;;;;;;;5023112;28;59153;-70
2024/01/11 05:01:05;;;;;;;;;;;;;;;;;;5020564;28;60331;-72
2024/01/11 05:03:31;;;;;;;;;;;;;;;;;;5017281;28;59719;-71
2024/01/11 05:05:56;;;;;;;;;;;;;;;;;;5022069;28;59289;-72
2024/01/11 05:08:21;;;;;;;;;;;;;;;;;;5021440;28;59382;-70
2024/01/11 05:10:46;;;;;;;;;;;;;;;;;;5015711;28;59796;-70
2024/01/11 05:13:11;;;;;;;;;;;;;;;;;;5018660;28;60320;-70
2024/01/11 05:15:36;;;;;;;;;;;;;;;;;;5021504;27;59392;-71
2024/01/11 05:18:02;;;;;;;;;;;;;;;;;;5021757;28;59477;-71
2024/01/11 05:20:27;;;;;;;;;;;;;;;;;;5022159;28;61213;-71
2024/01/11 05:22:52;;;;;;;;;;;;;;;;;;5020854;28;60156;-70
2024/01/11 05:25:17;;;;;;;;;;;;;;;;;;5024270;28;59517;-72
2024/01/11 05:27:42;;;;;;;;;;;;;;;;;;5023305;28;60263;-73
2024/01/11 05:30:07;;;;;;;;;;;;;;;;;;5023062;28;59836;-72
2024/01/11 05:32:32;;;;;;;;;;;;;;;;;;5024447;28;60376;-71
2024/01/11 05:34:57;;;;;;;;;;;;;;;;;;5020853;28;60417;-71
2024/01/11 05:37:22;;;;;;;;;;;;;;;;;;5023684;28;59480;-71
2024/01/11 05:39:47;;;;;;;;;;;;;;;;;;5023837;28;60466;-72
2024/01/11 05:42:13;;;;;;;;;;;;;;;;;;5018796;28;60514;-72
2024/01/11 05:44:38;;;;;;;;;;;;;;;;;;5021543;28;59622;-71
2024/01/11 05:47:03;;;;;;;;;;;;;;;;;;5021744;28;60132;-72
2024/01/11 05:49:28;;;;;;;;;;;;;;;;;;5023273;28;59764;-73
2024/01/11 05:51:53;;;;;;;;;;;;;;;;;;5022367;28;59234;-73
2024/01/11 05:54:18;;;;;;;;;;;;;;;;;;5020790;28;59616;-72
2024/01/11 05:56:44;;;;;;;;;;;;;;;;;;5022000;28;59565;-73
2024/01/11 05:59:09;;;;;;;;;;;;;;;;;;5021364;28;60982;-71
2024/01/11 06:01:34;;;;;;;;;;;;;;;;;;5021978;28;59200;-71
2024/01/11 06:03:59;;;;;;;;;;;;;;;;;;5022910;28;59583;-73
2024/01/11 06:06:24;;;;;;;;;;;;;;;;;;5021980;28;61482;-71
2024/01/11 06:08:50;;;;;;;;;;;;;;;;;;5019376;28;59644;-70
2024/01/11 06:11:18;;;;;;;;;;;;;;;;;;5022061;28;59638;-71
2024/01/11 06:13:43;;;;;;;;;;;;;;;;;;5020110;28;60231;-71
2024/01/11 06:16:08;;;;;;;;;;;;;;;;;;5034569;27;60826;-74
2024/01/11 06:18:33;;;;;;;;;;;;;;;;;;5023522;28;61667;-70
2024/01/11 06:20:58;;;;;;;;;;;;;;;;;;5020203;28;59904;-72
2024/01/11 06:23:23;;;;;;;;;;;;;;;;;;5020645;28;60061;-71
2024/01/11 06:25:48;;;;;;;;;;;;;;;;;;5019712;28;61135;-72
2024/01/11 06:28:14;;;;;;;;;;;;;;;;;;5018190;28;60531;-70
2024/01/11 06:30:39;;;;;;;;;;;;;;;;;;5021290;28;59535;-74
2024/01/11 06:33:04;;;;;;;;;;;;;;;;;;5022081;28;59463;-74
2024/01/11 06:35:29;;;;;;;;;;;;;;;;;;5018819;28;59485;-74
2024/01/11 06:37:54;;;;;;;;;;;;;;;;;;5018217;28;60307;-74
2024/01/11 06:40:19;;;;;;;;;;;;;;;;;;5020619;28;60062;-74
2024/01/11 06:42:44;;;;;;;;;;;;;;;;;;5020712;28;59429;-74
2024/01/11 06:45:09;;;;;;;;;;;;;;;;;;5022574;28;59716;-73
2024/01/11 06:47:35;;;;;;;;;;;;;;;;;;5021021;28;59489;-74
2024/01/11 06:50:00;;;;;;;;;;;;;;;;;;5020762;28;59503;-74
2024/01/11 06:52:25;;;;;;;;;;;;;;;;;;5021307;28;60268;-74
2024/01/11 06:54:50;;;;;;;;;;;;;;;;;;5020885;28;59500;-74
2024/01/11 06:57:15;;;;;;;;;;;;;;;;;;5022887;28;59520;-74
2024/01/11 06:59:40;;;;;;;;;;;;;;;;;;5021727;28;59736;-74
2024/01/11 07:02:05;;;;;;;;;;;;;;;;;;5022410;28;59491;-74
2024/01/11 07:04:30;;;;;;;;;;;;;;;;;;5019565;28;60238;-74
2024/01/11 07:06:55;;;;;;;;;;;;;;;;;;5019989;28;60200;-74
2024/01/11 07:09:20;;;;;;;;;;;;;;;;;;5022137;28;59179;-74
2024/01/11 07:11:45;;;;;;;;;;;;;;;;;;5020472;28;60656;-74
2024/01/11 07:14:10;;;;;;;;;;;;;;;;;;5022075;28;59592;-73
2024/01/11 07:16:36;;;;;;;;;;;;;;;;;;5021900;28;76941;-74
2024/01/11 07:19:01;;;;;;;;;;;;;;;;;;5019748;28;62331;-74
2024/01/11 07:21:29;;;;;;;;;;;;;;;;;;5021783;28;59814;-74
2024/01/11 07:23:54;;;;;;;;;;;;;;;;;;5021410;28;60234;-74
2024/01/11 07:26:19;;;;;;;;;;;;;;;;;;5019116;28;59477;-75
2024/01/11 07:28:44;;;;;;;;;;;;;;;;;;5020880;28;59649;-74
2024/01/11 07:31:10;;;;;;;;;;;;;;;;;;5022199;28;61350;-71
2024/01/11 07:33:35;;;;;;;;;;;;;;;;;;5021914;28;59242;-70
2024/01/11 07:36:00;;;;;;;;;;;;;;;;;;5021239;28;59266;-70
2024/01/11 07:38:25;;;;;;;;;;;;;;;;;;5020791;28;60670;-71
2024/01/11 07:40:50;;;;;;;;;;;;;;;;;;5020032;28;59400;-70
2024/01/11 07:43:15;;;;;;;;;;;;;;;;;;5021085;28;59151;-71
2024/01/11 07:45:40;;;;;;;;;;;;;;;;;;5018143;28;59870;-71
2024/01/11 07:48:05;;;;;;;;;;;;;;;;;;5023398;28;59253;-71
2024/01/11 07:50:30;;;;;;;;;;;;;;;;;;5019416;28;59686;-71
2024/01/11 07:52:56;;;;;;;;;;;;;;;;;;5020358;28;60837;-72
2024/01/11 07:55:23;;;;;;;;;;;;;;;;;;5019984;27;59181;-71
2024/01/11 07:57:49;;;;;;;;;;;;;;;;;;5021844;28;60136;-70
2024/01/11 08:00:14;;;;;;;;;;;;;;;;;;5020602;28;59856;-70
2024/01/11 08:02:40;;;;;;;;;;;;;;;;;;5020568;28;60530;-71
2024/01/11 08:05:05;;;;;;;;;;;;;;;;;;5019679;28;60079;-70
2024/01/11 08:07:30;;;;;;;;;;;;;;;;;;5019716;28;59486;-71
2024/01/11 08:09:55;;;;;;;;;;;;;;;;;;5019141;28;60443;-70
2024/01/11 08:12:20;;;;;;;;;;;;;;;;;;5019386;28;60571;-70
2024/01/11 08:14:46;;;;;;;;;;;;;;;;;;5020571;28;59851;-70
2024/01/11 08:17:12;;;;;;;;;;;;;;;;;;5021836;28;60715;-71
2024/01/11 08:19:38;;;;;;;;;;;;;;;;;;5022058;28;61052;-70
2024/01/11 08:22:03;;;;;;;;;;;;;;;;;;5025023;28;59147;-71
2024/01/11 08:24:28;;;;;;;;;;;;;;;;;;5021017;28;59561;-71
2024/01/11 08:26:53;;;;;;;;;;;;;;;;;;5024230;27;59319;-70
2024/01/11 08:29:22;;;;;;;;;;;;;;;;;;5021268;28;61347;-71
2024/01/11 08:31:47;;;;;;;;;;;;;;;;;;5024453;28;59241;-70
2024/01/11 08:34:12;;;;;;;;;;;;;;;;;;5022074;28;59496;-71
2024/01/11 08:36:38;;;;;;;;;;;;;;;;;;5025807;28;60089;-71
2024/01/11 08:39:07;;;;;;;;;;;;;;;;;;5022150;28;60558;-72
2024/01/11 08:41:32;;;;;;;;;;;;;;;;;;5023190;28;59253;-74
2024/01/11 08:43:57;;;;;;;;;;;;;;;;;;5023039;28;61518;-74
2024/01/11 08:46:22;;;;;;;;;;;;;;;;;;5022867;27;59719;-74
2024/01/11 08:48:47;;;;;;;;;;;;;;;;;;5023351;28;59356;-74
2024/01/11 08:51:12;;;;;;;;;;;;;;;;;;5025251;28;59431;-73
2024/01/11 08:53:37;;;;;;;;;;;;;;;;;;5021807;28;59436;-73
2024/01/11 08:56:02;;;;;;;;;;;;;;;;;;5024883;28;60174;-74
2024/01/11 08:58:27;;;;;;;;;;;;;;;;;;5022839;27;59205;-73
2024/01/11 09:00:52;;;;;;;;;;;;;;;;;;5023528;28;59499;-74
2024/01/11 09:03:17;;;;;;;;;;;;;;;;;;5024148;28;60546;-74
2024/01/11 09:05:42;;;;;;;;;;;;;;;;;;5024080;28;59626;-73
2024/01/11 09:08:08;;;;;;;;;;;;;;;;;;5024741;28;61248;-74
2024/01/11 09:10:33;;;;;;;;;;;;;;;;;;5022072;27;60402;-73
2024/01/11 09:12:58;;;;;;;;;;;;;;;;;;5023464;28;59066;-73
2024/01/11 09:15:23;;;;;;;;;;;;;;;;;;5023706;28;60115;-73
2024/01/11 09:17:48;;;;;;;;;;;;;;;;;;5021309;28;59624;-73
2024/01/11 09:20:14;;;;;;;;;;;;;;;;;;5024206;28;59453;-74
2024/01/11 09:22:39;;;;;;;;;;;;;;;;;;5023113;28;60190;-73
2024/01/11 09:25:04;;;;;;;;;;;;;;;;;;5022726;28;59398;-74
2024/01/11 09:27:29;;;;;;;;;;;;;;;;;;5024564;28;59445;-74
2024/01/11 09:29:54;;;;;;;;;;;;;;;;;;5024241;28;59377;-74
2024/01/11 09:32:20;;;;;;;;;;;;;;;;;;5023359;28;59964;-73
2024/01/11 09:34:45;;;;;;;;;;;;;;;;;;5024176;28;60905;-73
2024/01/11 09:37:10;;;;;;;;;;;;;;;;;;5022139;28;60435;-73
2024/01/11 09:39:35;;;;;;;;;;;;;;;;;;5022066;28;59526;-73
2024/01/11 09:42:00;;;;;;;;;;;;;;;;;;5022790;27;60781;-74
2024/01/11 09:44:25;;;;;;;;;;;;;;;;;;5021288;28;59368;-73
2024/01/11 09:46:51;;;;;;;;;;;;;;;;;;5021286;28;59635;-73
2024/01/11 09:49:16;;;;;;;;;;;;;;;;;;5022384;27;61178;-73
2024/01/11 09:51:41;;;;;;;;;;;;;;;;;;5023403;27;59209;-71
2024/01/11 09:54:07;;;;;;;;;;;;;;;;;;5021729;28;60168;-71
2024/01/11 09:56:32;;;;;;;;;;;;;;;;;;5022632;28;59813;-70
2024/01/11 09:58:57;;;;;;;;;;;;;;;;;;5023948;28;59512;-71
2024/01/11 10:01:23;;;;;;;;;;;;;;;;;;5023452;28;60206;-71
2024/01/11 10:03:48;;;;;;;;;;;;;;;;;;5022004;28;59661;-70
2024/01/11 10:06:13;;;;;;;;;;;;;;;;;;5023583;28;59227;-72
2024/01/11 10:08:38;;;;;;;;;;;;;;;;;;5021187;28;61153;-71
2024/01/11 10:11:03;;;;;;;;;;;;;;;;;;5022180;28;59185;-71
2024/01/11 10:13:32;;;;;;;;;;;;;;;;;;5021589;28;59812;-71
2024/01/11 10:15:57;;;;;;;;;;;;;;;;;;5022206;28;59558;-70
2024/01/11 10:18:23;;;;;;;;;;;;;;;;;;5021056;28;59577;-72
2024/01/11 10:20:48;;;;;;;;;;;;;;;;;;5021380;28;61227;-71
2024/01/11 10:23:13;;;;;;;;;;;;;;;;;;5020216;28;60093;-72
2024/01/11 10:25:38;;;;;;;;;;;;;;;;;;5022069;27;60232;-73
2024/01/11 10:28:03;;;;;;;;;;;;;;;;;;5021629;27;61397;-71
2024/01/11 10:30:29;;;;;;;;;;;;;;;;;;5022347;28;60042;-73
2024/01/11 10:32:54;;;;;;;;;;;;;;;;;;5022647;28;59297;-70
2024/01/11 10:35:19;;;;;;;;;;;;;;;;;;5021611;28;60944;-71
2024/01/11 10:37:44;;;;;;;;;;;;;;;;;;5022245;28;59558;-72
2024/01/11 10:40:12;;;;;;;;;;;;;;;;;;5020999;28;60604;-71
2024/01/11 10:42:38;;;;;;;;;;;;;;;;;;5020426;27;59451;-72
2024/01/11 10:45:04;;;;;;;;;;;;;;;;;;5022352;28;60573;-71
2024/01/11 10:47:29;;;;;;;;;;;;;;;;;;5022277;27;60339;-71
2024/01/11 10:49:54;;;;;;;;;;;;;;;;;;5020002;28;59203;-70
2024/01/11 10:52:19;;;;;;;;;;;;;;;;;;5021058;28;59400;-71
2024/01/11 10:54:45;;;;;;;;;;;;;;;;;;5020979;28;59886;-70
2024/01/11 10:57:10;;;;;;;;;;;;;;;;;;5024252;28;59188;-71
2024/01/11 10:59:35;;;;;;;;;;;;;;;;;;5022381;28;60833;-71
2024/01/11 11:02:00;;;;;;;;;;;;;;;;;;5021513;28;59488;-71
2024/01/11 11:04:25;;;;;;;;;;;;;;;;;;5021937;28;59370;-70
2024/01/11 11:06:50;;;;;;;;;;;;;;;;;;5019180;28;61452;-72
2024/01/11 11:09:15;;;;;;;;;;;;;;;;;;5021098;28;59147;-71
2024/01/11 11:11:40;;;;;;;;;;;;;;;;;;5022771;28;59544;-71
2024/01/11 11:14:05;;;;;;;;;;;;;;;;;;5022665;28;61060;-72
2024/01/11 11:16:30;;;;;;;;;;;;;;;;;;5021058;28;59858;-71
2024/01/11 11:18:55;;;;;;;;;;;;;;;;;;5022296;28;60127;-71
2024/01/11 11:21:21;;;;;;;;;;;;;;;;;;5021670;28;59854;-71
2024/01/11 11:23:46;;;;;;;;;;;;;;;;;;5022632;28;59570;-71
2024/01/11 11:26:11;;;;;;;;;;;;;;;;;;5020714;28;61183;-70
2024/01/11 11:28:36;;;;;;;;;;;;;;;;;;5020437;28;59459;-71
2024/01/11 11:31:02;;;;;;;;;;;;;;;;;;5020943;28;59455;-71
2024/01/11 11:33:27;;;;;;;;;;;;;;;;;;5021616;28;60395;-71
2024/01/11 11:35:53;;;;;;;;;;;;;;;;;;5020227;28;59567;-71
2024/01/11 11:38:18;;;;;;;;;;;;;;;;;;5021414;27;59769;-71
2024/01/11 11:40:45;;;;;;;;;;;;;;;;;;5020837;28;59805;-70
2024/01/11 11:43:10;;;;;;;;;;;;;;;;;;5021068;27;60107;-71
2024/01/11 11:45:35;;;;;;;;;;;;;;;;;;5018330;28;60447;-71
2024/01/11 11:48:00;;;;;;;;;;;;;;;;;;5022934;28;60254;-71
2024/01/11 11:50:25;;;;;;;;;;;;;;;;;;5019499;28;60422;-70
2024/01/11 11:52:51;;;;;;;;;;;;;;;;;;5023732;28;60324;-73
2024/01/11 11:55:17;;;;;;;;;;;;;;;;;;5024430;28;59728;-71
2024/01/11 11:57:42;;;;;;;;;;;;;;;;;;5024283;28;59318;-71
2024/01/11 12:00:07;;;;;;;;;;;;;;;;;;5024389;28;60375;-71
2024/01/11 12:02:32;;;;;;;;;;;;;;;;;;5022821;28;60077;-72
2024/01/11 12:04:57;;;;;;;;;;;;;;;;;;5025063;28;61012;-71
2024/01/11 12:07:23;;;;;;;;;;;;;;;;;;5023853;28;59605;-71
2024/01/11 12:09:48;;;;;;;;;;;;;;;;;;5026210;28;59256;-74
2024/01/11 12:12:13;;;;;;;;;;;;;;;;;;5025101;28;61819;-74
2024/01/11 12:14:38;;;;;;;;;;;;;;;;;;5023106;28;59206;-75
2024/01/11 12:17:03;;;;;;;;;;;;;;;;;;5025643;28;59376;-74
2024/01/11 12:19:28;;;;;;;;;;;;;;;;;;5024543;28;59250;-75
2024/01/11 12:21:54;;;;;;;;;;;;;;;;;;5026058;28;59231;-72
2024/01/11 12:24:21;;;;;;;;;;;;;;;;;;5022984;28;61171;-71
2024/01/11 12:26:46;;;;;;;;;;;;;;;;;;5023830;28;60269;-72
2024/01/11 12:29:14;;;;;;;;;;;;;;;;;;5021233;28;59605;-71
2024/01/11 12:31:39;;;;;;;;;;;;;;;;;;5024271;28;60389;-71
2024/01/11 12:34:04;;;;;;;;;;;;;;;;;;5022393;28;59958;-70
2024/01/11 12:36:29;;;;;;;;;;;;;;;;;;5023932;28;59292;-73
2024/01/11 12:38:54;;;;;;;;;;;;;;;;;;5023545;27;60557;-71
2024/01/11 12:41:19;;;;;;;;;;;;;;;;;;5023618;28;60112;-71
2024/01/11 12:43:44;;;;;;;;;;;;;;;;;;5023836;27;60128;-72
2024/01/11 12:46:09;;;;;;;;;;;;;;;;;;5022260;28;60804;-71
2024/01/11 12:48:34;;;;;;;;;;;;;;;;;;5023286;28;60295;-71
2024/01/11 12:51:00;;;;;;;;;;;;;;;;;;5023599;28;60245;-71
2024/01/11 12:53:25;;;;;;;;;;;;;;;;;;5021738;28;59450;-71
2024/01/11 12:55:51;;;;;;;;;;;;;;;;;;5022441;27;59240;-70
2024/01/11 12:58:16;;;;;;;;;;;;;;;;;;5024096;28;61927;-71
2024/01/11 13:00:41;;;;;;;;;;;;;;;;;;5023491;28;60573;-71
2024/01/11 13:03:06;;;;;;;;;;;;;;;;;;5024913;28;60905;-71
2024/01/11 13:05:34;;;;;;;;;;;;;;;;;;5021256;28;59708;-71
2024/01/11 13:07:59;;;;;;;;;;;;;;;;;;5022292;27;59577;-71
2024/01/11 13:10:27;;;;;;;;;;;;;;;;;;5019776;28;60450;-73
2024/01/11 13:12:52;;;;;;;;;;;;;;;;;;5022162;28;59852;-71
2024/01/11 13:15:17;;;;;;;;;;;;;;;;;;5022040;28;59507;-73
2024/01/11 13:17:43;;;;;;;;;;;;;;;;;;5022298;28;61456;-71
2024/01/11 13:20:08;;;;;;;;;;;;;;;;;;5022381;28;59913;-75
2024/01/11 13:22:33;;;;;;;;;;;;;;;;;;5021927;28;59412;-75
2024/01/11 13:24:58;;;;;;;;;;;;;;;;;;5020705;28;59514;-75
2024/01/11 13:27:23;;;;;;;;;;;;;;;;;;5022229;28;60227;-75
2024/01/11 13:29:48;;;;;;;;;;;;;;;;;;5022726;28;61154;-75
2024/01/11 13:32:13;;;;;;;;;;;;;;;;;;5023705;27;59854;-75
2024/01/11 13:34:38;;;;;;;;;;;;;;;;;;5022601;28;58991;-75
2024/01/11 13:37:03;;;;;;;;;;;;;;;;;;5021447;28;60234;-74
2024/01/11 13:39:28;;;;;;;;;;;;;;;;;;5021576;28;59994;-75
2024/01/11 13:41:53;;;;;;;;;;;;;;;;;;5022249;28;60779;-74
2024/01/11 13:44:18;;;;;;;;;;;;;;;;;;5020505;27;61454;-75
2024/01/11 13:46:43;;;;;;;;;;;;;;;;;;5022294;28;59372;-75
2024/01/11 13:49:09;;;;;;;;;;;;;;;;;;5021757;28;61544;-75
2024/01/11 13:51:34;;;;;;;;;;;;;;;;;;5019161;28;60416;-75
2024/01/11 13:54:00;;;;;;;;;;;;;;;;;;5021667;28;59479;-75
2024/01/11 13:56:25;;;;;;;;;;;;;;;;;;5023528;28;61231;-75
2024/01/11 13:58:50;;;;;;;;;;;;;;;;;;5021969;28;60506;-75
2024/01/11 14:01:15;;;;;;;;;;;;;;;;;;5022030;28;59352;-75
2024/01/11 14:03:40;;;;;;;;;;;;;;;;;;5021091;28;60318;-74
2024/01/11 14:06:06;;;;;;;;;;;;;;;;;;5021757;28;59276;-75
2024/01/11 14:08:31;;;;;;;;;;;;;;;;;;5019115;28;60056;-74
2024/01/11 14:10:56;;;;;;;;;;;;;;;;;;5021679;28;59748;-75
2024/01/11 14:13:21;;;;;;;;;;;;;;;;;;5021283;28;59511;-75
2024/01/11 14:15:48;;;;;;;;;;;;;;;;;;5023369;27;59663;-74
2024/01/11 14:18:13;;;;;;;;;;;;;;;;;;5021129;28;59332;-74
2024/01/11 14:20:38;;;;;;;;;;;;;;;;;;5021430;27;60594;-74
2024/01/11 14:23:04;;;;;;;;;;;;;;;;;;5021516;27;60464;-75
2024/01/11 14:25:30;;;;;;;;;;;;;;;;;;5022518;28;59965;-75
2024/01/11 14:27:56;;;;;;;;;;;;;;;;;;5021974;28;60561;-76
2024/01/11 14:30:22;;;;;;;;;;;;;;;;;;5020210;28;59640;-77
2024/01/11 14:32:47;;;;;;;;;;;;;;;;;;5020471;28;59320;-75
2024/01/11 14:35:12;;;;;;;;;;;;;;;;;;5019914;28;61060;-75
2024/01/11 14:37:37;;;;;;;;;;;;;;;;;;5019583;28;60553;-75
2024/01/11 14:40:02;;;;;;;;;;;;;;;;;;5022073;28;59551;-75
2024/01/11 14:42:27;;;;;;;;;;;;;;;;;;5021293;28;61248;-75
2024/01/11 14:44:52;;;;;;;;;;;;;;;;;;5020215;28;59593;-74
2024/01/11 14:47:17;;;;;;;;;;;;;;;;;;5021093;28;59245;-74
2024/01/11 14:49:43;;;;;;;;;;;;;;;;;;5018182;28;59519;-74
2024/01/11 14:52:08;;;;;;;;;;;;;;;;;;5014419;28;60130;-75
2024/01/11 14:54:33;;;;;;;;;;;;;;;;;;5018134;28;60232;-75
2024/01/11 14:56:58;;;;;;;;;;;;;;;;;;5020539;28;59427;-75
2024/01/11 14:59:24;;;;;;;;;;;;;;;;;;5022544;28;59186;-75
2024/01/11 15:01:49;;;;;;;;;;;;;;;;;;5021968;28;61128;-77
2024/01/11 15:04:14;;;;;;;;;;;;;;;;;;5019638;27;59574;-76
2024/01/11 15:06:39;;;;;;;;;;;;;;;;;;5020756;28;59091;-75
2024/01/11 15:09:04;;;;;;;;;;;;;;;;;;5024339;28;59770;-77
2024/01/11 15:11:30;;;;;;;;;;;;;;;;;;5021331;28;59494;-77
2024/01/11 15:13:55;;;;;;;;;;;;;;;;;;5021792;27;60509;-79
2024/01/11 15:16:20;;;;;;;;;;;;;;;;;;5017928;28;59867;-78
2024/01/11 15:18:46;;;;;;;;;;;;;;;;;;5018907;28;60177;-76
2024/01/11 15:21:11;;;;;;;;;;;;;;;;;;5018542;28;60389;-76
2024/01/11 15:23:36;;;;;;;;;;;;;;;;;;5021132;28;59223;-78
2024/01/11 15:26:01;;;;;;;;;;;;;;;;;;5020481;28;59707;-76
2024/01/11 15:28:27;;;;;;;;;;;;;;;;;;5019854;27;61180;-77
2024/01/11 15:30:52;;;;;;;;;;;;;;;;;;5019215;27;60005;-77
2024/01/11 15:33:17;;;;;;;;;;;;;;;;;;5021050;28;60291;-77
2024/01/11 15:35:42;;;;;;;;;;;;;;;;;;5015845;28;60997;-77
2024/01/11 15:38:07;;;;;;;;;;;;;;;;;;5022003;28;59633;-77
2024/01/11 15:40:32;;;;;;;;;;;;;;;;;;5019847;28;60113;-75
2024/01/11 15:42:57;;;;;;;;;;;;;;;;;;5020974;28;59763;-74
2024/01/11 15:45:23;;;;;;;;;;;;;;;;;;5017832;28;59498;-75
2024/01/11 15:47:48;;;;;;;;;;;;;;;;;;5022900;28;60456;-75
2024/01/11 15:50:13;;;;;;;;;;;;;;;;;;5020428;27;59193;-75
2024/01/11 15:52:38;;;;;;;;;;;;;;;;;;5021457;28;60305;-73
2024/01/11 15:55:04;;;;;;;;;;;;;;;;;;5020610;28;60190;-73
2024/01/11 15:57:30;;;;;;;;;;;;;;;;;;5021136;28;59632;-73
2024/01/11 15:59:55;;;;;;;;;;;;;;;;;;5018998;28;60050;-75
2024/01/11 16:02:20;;;;;;;;;;;;;;;;;;5019153;28;59440;-73
2024/01/11 16:04:45;;;;;;;;;;;;;;;;;;5019878;28;59622;-74
2024/01/11 16:07:10;;;;;;;;;;;;;;;;;;5021510;28;59843;-74
2024/01/11 16:09:36;;;;;;;;;;;;;;;;;;5021717;28;59848;-75
2024/01/11 16:12:01;;;;;;;;;;;;;;;;;;5020411;28;59218;-75
2024/01/11 16:14:27;;;;;;;;;;;;;;;;;;5018405;28;59471;-74
2024/01/11 16:16:52;;;;;;;;;;;;;;;;;;5019551;28;59634;-75
2024/01/11 16:19:18;;;;;;;;;;;;;;;;;;5018581;27;60597;-74
2024/01/11 16:21:43;;;;;;;;;;;;;;;;;;5018095;28;59771;-75
2024/01/11 16:24:08;;;;;;;;;;;;;;;;;;5017048;28;59961;-78
2024/01/11 16:26:33;;;;;;;;;;;;;;;;;;5019319;28;60637;-73
2024/01/11 16:28:58;;;;;;;;;;;;;;;;;;5017578;28;59376;-74
2024/01/11 16:31:23;;;;;;;;;;;;;;;;;;5018228;28;59680;-72